createdAt,value
2023-01-10T00:00:25.695Z,7.50
2023-01-10T00:01:28.747Z,7.50
2023-01-10T00:02:30.722Z,7.40
2023-01-10T00:03:33.654Z,7.50
2023-01-10T00:04:35.707Z,7.50
2023-01-10T00:05:39.844Z,7.40
2023-01-10T00:06:41.824Z,7.50
2023-01-10T00:07:45.345Z,7.50
2023-01-10T00:08:47.393Z,7.40
2023-01-10T00:09:51.778Z,7.50
2023-01-10T00:10:53.676Z,7.60
2023-01-10T00:12:13.967Z,7.60
2023-01-10T00:13:26.588Z,7.70
2023-01-10T00:14:29.853Z,7.60
2023-01-10T00:15:33.738Z,7.60
2023-01-10T00:16:37.068Z,7.60
2023-01-10T00:17:40.306Z,7.60
2023-01-10T00:18:42.283Z,7.50
2023-01-10T00:19:45.239Z,7.60
2023-01-10T00:20:47.706Z,7.70
2023-01-10T00:21:50.693Z,7.70
2023-01-10T00:22:53.617Z,7.70
2023-01-10T00:23:58.018Z,7.60
2023-01-10T00:25:02.331Z,7.60
2023-01-10T00:26:04.618Z,7.60
2023-01-10T00:27:09.728Z,7.60
2023-01-10T00:28:19.745Z,7.60
2023-01-10T00:29:26.221Z,7.60
2023-01-10T00:30:28.473Z,7.50
2023-01-10T00:31:31.805Z,7.50
2023-01-10T00:32:34.759Z,7.50
2023-01-10T00:33:37.695Z,7.60
2023-01-10T00:34:40.613Z,7.60
2023-01-10T00:35:43.007Z,7.70
2023-01-10T00:36:47.392Z,7.70
2023-01-10T00:37:52.041Z,7.70
2023-01-10T00:38:53.933Z,7.70
2023-01-10T00:39:56.874Z,7.70
2023-01-10T00:41:00.541Z,7.70
2023-01-10T00:42:21.171Z,7.60
2023-01-10T00:43:41.559Z,7.70
2023-01-10T00:44:46.758Z,7.60
2023-01-10T00:45:49.897Z,7.60
2023-01-10T00:46:51.969Z,7.60
2023-01-10T00:47:55.002Z,7.70
2023-01-10T00:48:57.281Z,7.60
2023-01-10T00:50:00.189Z,7.70
2023-01-10T00:51:02.351Z,7.60
2023-01-10T00:52:05.635Z,7.70
2023-01-10T00:53:07.614Z,7.70
2023-01-10T00:54:10.882Z,7.70
2023-01-10T00:55:12.928Z,7.60
2023-01-10T00:56:17.441Z,7.70
2023-01-10T00:57:19.388Z,7.70
2023-01-10T00:58:22.766Z,7.60
2023-01-10T00:59:24.914Z,7.70
2023-01-10T01:00:27.940Z,7.60
2023-01-10T01:01:29.989Z,7.60
2023-01-10T01:02:33.228Z,7.70
2023-01-10T01:03:35.257Z,7.70
2023-01-10T01:04:38.205Z,7.70
2023-01-10T01:05:41.141Z,7.80
2023-01-10T01:06:45.812Z,7.80
2023-01-10T01:07:48.617Z,7.80
2023-01-10T01:08:51.543Z,7.80
2023-01-10T01:10:12.052Z,7.80
2023-01-10T01:11:15.033Z,7.80
2023-01-10T01:12:18.471Z,7.80
2023-01-10T01:13:23.066Z,7.80
2023-01-10T01:14:25.390Z,7.80
2023-01-10T01:15:28.699Z,7.80
2023-01-10T01:16:30.838Z,7.70
2023-01-10T01:17:33.754Z,7.70
2023-01-10T01:18:35.839Z,7.60
2023-01-10T01:19:38.763Z,7.70
2023-01-10T01:20:41.472Z,7.70
2023-01-10T01:21:44.385Z,7.60
2023-01-10T01:22:46.291Z,7.60
2023-01-10T01:23:51.137Z,7.70
2023-01-10T01:24:53.090Z,7.60
2023-01-10T01:25:56.863Z,7.70
2023-01-10T01:26:58.836Z,7.60
2023-01-10T01:28:03.160Z,7.70
2023-01-10T01:29:05.173Z,7.70
2023-01-10T01:30:10.480Z,7.60
2023-01-10T01:31:12.524Z,7.60
2023-01-10T01:32:15.639Z,7.70
2023-01-10T01:33:18.574Z,7.70
2023-01-10T01:34:21.637Z,7.70
2023-01-10T01:35:25.083Z,7.70
2023-01-10T01:36:27.981Z,7.70
2023-01-10T01:37:29.941Z,7.70
2023-01-10T01:38:32.888Z,7.80
2023-01-10T01:39:34.923Z,7.70
2023-01-10T01:40:39.056Z,7.70
2023-01-10T01:41:58.969Z,7.70
2023-01-10T01:43:03.493Z,7.70
2023-01-10T01:44:11.149Z,7.70
2023-01-10T01:45:41.269Z,7.70
2023-01-10T01:46:46.864Z,7.70
2023-01-10T01:47:54.345Z,7.70
2023-01-10T01:48:56.380Z,7.80
2023-01-10T01:49:59.403Z,7.70
2023-01-10T01:51:07.975Z,7.70
2023-01-10T01:52:18.503Z,7.70
2023-01-10T01:53:25.570Z,7.60
2023-01-10T01:54:30.087Z,7.60
2023-01-10T01:55:34.612Z,7.70
2023-01-10T01:56:42.877Z,7.70
2023-01-10T01:57:46.434Z,7.60
2023-01-10T01:58:55.168Z,7.70
2023-01-10T01:59:57.264Z,7.60
2023-01-10T02:01:00.476Z,7.60
2023-01-10T02:02:08.399Z,7.60
2023-01-10T02:03:12.508Z,7.60
2023-01-10T02:04:20.358Z,7.60
2023-01-10T02:05:23.739Z,7.50
2023-01-10T02:06:27.063Z,7.50
2023-01-10T02:07:32.906Z,7.60
2023-01-10T02:08:36.426Z,7.60
2023-01-10T02:09:43.843Z,7.60
2023-01-10T02:10:52.310Z,7.60
2023-01-10T02:11:55.053Z,7.60
2023-01-10T02:13:02.672Z,7.60
2023-01-10T02:14:09.241Z,7.60
2023-01-10T02:15:11.734Z,7.60
2023-01-10T02:16:15.617Z,7.60
2023-01-10T02:17:17.587Z,7.60
2023-01-10T02:18:21.737Z,7.70
2023-01-10T02:19:29.449Z,7.70
2023-01-10T02:20:42.252Z,7.70
2023-01-10T02:22:40.280Z,7.70
2023-01-10T02:24:17.339Z,7.70
2023-01-10T02:25:49.151Z,7.70
2023-01-10T02:27:24.433Z,7.70
2023-01-10T02:29:00.991Z,7.60
2023-01-10T02:30:44.037Z,7.70
2023-01-10T02:32:12.954Z,7.70
2023-01-10T02:33:22.791Z,7.70
2023-01-10T02:34:33.455Z,7.80
2023-01-10T02:35:51.861Z,7.70
2023-01-10T02:37:04.850Z,7.70
2023-01-10T02:38:15.270Z,7.70
2023-01-10T02:39:21.957Z,7.60
2023-01-10T02:40:31.763Z,7.70
2023-01-10T02:41:41.978Z,7.80
2023-01-10T02:42:51.329Z,7.80
2023-01-10T02:44:00.905Z,7.70
2023-01-10T02:45:09.956Z,7.80
2023-01-10T02:46:18.148Z,7.70
2023-01-10T02:47:21.527Z,7.60
2023-01-10T02:48:24.544Z,7.70
2023-01-10T02:49:26.462Z,7.70
2023-01-10T02:50:52.014Z,7.70
2023-01-10T02:51:54.420Z,7.50
2023-01-10T02:53:00.651Z,7.70
2023-01-10T02:54:08.515Z,7.70
2023-01-10T02:55:10.446Z,7.70
2023-01-10T02:56:38.097Z,7.70
2023-01-10T02:57:49.696Z,7.60
2023-01-10T02:59:07.998Z,7.70
2023-01-10T03:00:32.137Z,7.60
2023-01-10T03:01:43.100Z,7.60
2023-01-10T03:03:19.161Z,7.50
2023-01-10T03:04:28.465Z,7.50
2023-01-10T03:05:45.720Z,7.60
2023-01-10T03:06:54.609Z,7.60
2023-01-10T03:08:04.243Z,8.30
2023-01-10T03:09:15.557Z,7.60
2023-01-10T03:10:24.373Z,7.60
2023-01-10T03:11:40.980Z,7.60
2023-01-10T03:12:47.424Z,7.60
2023-01-10T03:13:54.651Z,7.60
2023-01-10T03:14:59.353Z,7.60
2023-01-10T03:16:05.726Z,7.60
2023-01-10T03:17:11.832Z,7.60
2023-01-10T03:18:21.912Z,7.70
2023-01-10T03:19:27.467Z,7.70
2023-01-10T03:20:34.719Z,7.60
2023-01-10T03:21:38.761Z,7.60
2023-01-10T03:22:44.389Z,7.60
2023-01-10T03:23:49.495Z,7.60
2023-01-10T03:24:56.064Z,7.70
2023-01-10T03:25:59.504Z,7.60
2023-01-10T03:27:07.227Z,7.60
2023-01-10T03:28:16.117Z,7.60
2023-01-10T03:29:24.473Z,7.60
2023-01-10T03:30:32.859Z,7.60
2023-01-10T03:31:42.495Z,7.60
2023-01-10T03:32:45.816Z,7.60
2023-01-10T03:33:49.900Z,7.60
2023-01-10T03:34:53.490Z,7.60
2023-01-10T03:36:05.734Z,7.60
2023-01-10T03:37:14.700Z,7.60
2023-01-10T03:38:23.970Z,7.60
2023-01-10T03:39:35.599Z,7.60
2023-01-10T03:40:44.011Z,7.60
2023-01-10T03:41:52.683Z,7.60
2023-01-10T03:43:20.252Z,7.60
2023-01-10T03:44:44.032Z,7.60
2023-01-10T03:45:56.019Z,7.70
2023-01-10T03:47:03.778Z,7.70
2023-01-10T03:48:09.627Z,7.60
2023-01-10T03:49:15.263Z,7.70
2023-01-10T03:50:21.255Z,7.70
2023-01-10T03:51:23.882Z,7.70
2023-01-10T03:52:27.528Z,7.70
2023-01-10T03:53:29.611Z,7.60
2023-01-10T03:54:32.626Z,7.60
2023-01-10T03:55:35.383Z,7.60
2023-01-10T03:56:49.759Z,7.60
2023-01-10T03:57:51.750Z,7.70
2023-01-10T03:58:54.839Z,7.70
2023-01-10T03:59:58.778Z,7.70
2023-01-10T04:01:02.671Z,7.70
2023-01-10T04:02:04.815Z,7.70
2023-01-10T04:03:09.712Z,7.70
2023-01-10T04:04:13.064Z,7.60
2023-01-10T04:05:16.242Z,7.70
2023-01-10T04:06:20.182Z,7.60
2023-01-10T04:07:23.136Z,7.60
2023-01-10T04:08:25.064Z,7.60
2023-01-10T04:09:28.126Z,7.60
2023-01-10T04:10:31.084Z,7.70
2023-01-10T04:11:33.002Z,7.80
2023-01-10T04:12:36.063Z,7.80
2023-01-10T04:13:38.046Z,7.80
2023-01-10T04:14:41.291Z,7.70
2023-01-10T04:15:43.302Z,7.70
2023-01-10T04:16:46.499Z,7.70
2023-01-10T04:17:48.778Z,7.60
2023-01-10T04:18:51.920Z,7.70
2023-01-10T04:19:56.270Z,7.70
2023-01-10T04:20:58.217Z,7.70
2023-01-10T04:22:01.321Z,7.70
2023-01-10T04:23:04.248Z,7.70
2023-01-10T04:24:06.981Z,7.70
2023-01-10T04:25:10.539Z,7.60
2023-01-10T04:26:12.755Z,7.60
2023-01-10T04:27:15.707Z,7.60
2023-01-10T04:28:17.949Z,7.70
2023-01-10T04:29:20.861Z,7.60
2023-01-10T04:30:22.941Z,7.70
2023-01-10T04:31:27.035Z,7.60
2023-01-10T04:32:29.023Z,7.60
2023-01-10T04:33:32.382Z,7.70
2023-01-10T04:34:35.403Z,7.60
2023-01-10T04:35:39.711Z,7.60
2023-01-10T04:36:42.614Z,7.60
2023-01-10T04:37:44.696Z,7.60
2023-01-10T04:38:47.620Z,7.50
2023-01-10T04:39:50.550Z,7.60
2023-01-10T04:40:54.035Z,7.50
2023-01-10T04:41:57.107Z,7.60
2023-01-10T04:42:59.024Z,7.60
2023-01-10T04:44:02.223Z,7.50
2023-01-10T04:45:04.986Z,7.40
2023-01-10T04:46:08.040Z,7.40
2023-01-10T04:47:11.016Z,7.40
2023-01-10T04:48:12.933Z,7.40
2023-01-10T04:49:15.898Z,7.40
2023-01-10T04:50:18.172Z,7.50
2023-01-10T04:51:22.459Z,7.50
2023-01-10T04:52:26.059Z,7.50
2023-01-10T04:53:29.016Z,7.60
2023-01-10T04:54:30.975Z,7.60
2023-01-10T04:55:34.746Z,7.60
2023-01-10T04:56:36.786Z,7.50
2023-01-10T04:57:39.757Z,7.50
2023-01-10T04:58:41.726Z,7.60
2023-01-10T04:59:44.621Z,7.60
2023-01-10T05:00:46.753Z,7.50
2023-01-10T05:01:49.736Z,7.50
2023-01-10T05:02:56.247Z,7.60
2023-01-10T05:03:59.221Z,7.50
2023-01-10T05:05:01.189Z,7.40
2023-01-10T05:06:04.444Z,7.40
2023-01-10T05:07:07.740Z,7.40
2023-01-10T05:08:10.667Z,7.30
2023-01-10T05:09:12.570Z,7.30
2023-01-10T05:10:15.569Z,7.30
2023-01-10T05:11:17.738Z,7.40
2023-01-10T05:12:20.647Z,7.40
2023-01-10T05:13:22.638Z,7.40
2023-01-10T05:14:25.589Z,7.50
2023-01-10T05:15:27.680Z,7.40
2023-01-10T05:16:30.828Z,7.40
2023-01-10T05:17:32.994Z,7.50
2023-01-10T05:18:36.034Z,7.40
2023-01-10T05:19:37.963Z,7.50
2023-01-10T05:20:40.901Z,7.50
2023-01-10T05:21:42.842Z,7.50
2023-01-10T05:22:47.135Z,7.50
2023-01-10T05:23:49.193Z,7.50
2023-01-10T05:24:54.496Z,7.50
2023-01-10T05:25:56.982Z,7.50
2023-01-10T05:27:00.020Z,7.50
2023-01-10T05:28:01.971Z,7.50
2023-01-10T05:29:04.940Z,7.60
2023-01-10T05:30:09.114Z,7.50
2023-01-10T05:31:14.901Z,7.50
2023-01-10T05:32:16.887Z,7.50
2023-01-10T05:33:19.886Z,7.40
2023-01-10T05:34:21.834Z,7.40
2023-01-10T05:35:24.791Z,7.50
2023-01-10T05:36:26.821Z,7.50
2023-01-10T05:37:29.716Z,7.40
2023-01-10T05:38:33.772Z,7.40
2023-01-10T05:39:36.705Z,7.50
2023-01-10T05:40:38.642Z,7.40
2023-01-10T05:41:41.646Z,7.50
2023-01-10T05:42:43.633Z,7.60
2023-01-10T05:43:46.581Z,7.60
2023-01-10T05:44:48.582Z,7.50
2023-01-10T05:45:52.004Z,7.50
2023-01-10T05:46:53.992Z,7.50
2023-01-10T05:47:56.929Z,7.50
2023-01-10T05:49:00.120Z,7.60
2023-01-10T05:50:02.090Z,7.50
2023-01-10T05:51:05.465Z,7.50
2023-01-10T05:52:07.409Z,7.40
2023-01-10T05:53:10.360Z,7.40
2023-01-10T05:54:14.113Z,7.40
2023-01-10T05:55:17.193Z,7.40
2023-01-10T05:56:19.163Z,7.40
2023-01-10T05:57:24.604Z,7.40
2023-01-10T05:58:26.677Z,7.40
2023-01-10T05:59:29.606Z,7.40
2023-01-10T06:00:31.608Z,7.40
2023-01-10T06:01:34.636Z,7.30
2023-01-10T06:02:36.669Z,7.40
2023-01-10T06:03:39.707Z,7.40
2023-01-10T06:04:41.679Z,7.40
2023-01-10T06:05:45.086Z,7.40
2023-01-10T06:06:47.714Z,7.40
2023-01-10T06:07:56.552Z,7.40
2023-01-10T06:08:59.789Z,7.40
2023-01-10T06:10:04.478Z,7.40
2023-01-10T06:11:06.961Z,7.40
2023-01-10T06:12:09.926Z,7.40
2023-01-10T06:13:12.229Z,7.50
2023-01-10T06:14:19.149Z,7.40
2023-01-10T06:15:22.147Z,7.50
2023-01-10T06:16:24.239Z,7.50
2023-01-10T06:17:27.238Z,7.50
2023-01-10T06:18:29.290Z,7.40
2023-01-10T06:19:32.177Z,7.40
2023-01-10T06:20:34.154Z,7.40
2023-01-10T06:21:37.686Z,7.50
2023-01-10T06:22:41.133Z,7.40
2023-01-10T06:23:44.086Z,7.40
2023-01-10T06:24:46.002Z,7.40
2023-01-10T06:25:50.291Z,7.40
2023-01-10T06:26:53.647Z,7.40
2023-01-10T06:27:55.605Z,7.40
2023-01-10T06:28:59.616Z,7.40
2023-01-10T06:30:01.651Z,7.50
2023-01-10T06:31:04.672Z,7.50
2023-01-10T06:32:06.711Z,7.40
2023-01-10T06:33:11.292Z,7.40
2023-01-10T06:34:14.170Z,7.40
2023-01-10T06:35:18.070Z,7.40
2023-01-10T06:36:20.304Z,7.40
2023-01-10T06:37:23.287Z,7.40
2023-01-10T06:38:25.174Z,7.40
2023-01-10T06:39:28.111Z,7.40
2023-01-10T06:40:30.390Z,7.40
2023-01-10T06:41:34.758Z,7.40
2023-01-10T06:42:36.796Z,7.40
2023-01-10T06:43:40.600Z,7.40
2023-01-10T06:44:43.543Z,7.40
2023-01-10T06:45:45.516Z,7.30
2023-01-10T06:46:48.415Z,7.40
2023-01-10T06:47:50.335Z,7.40
2023-01-10T06:48:53.210Z,7.40
2023-01-10T06:49:55.132Z,7.40
2023-01-10T06:50:58.026Z,7.30
2023-01-10T06:52:00.048Z,7.40
2023-01-10T06:53:05.548Z,7.40
2023-01-10T06:54:07.526Z,7.40
2023-01-10T06:55:10.804Z,7.40
2023-01-10T06:56:13.718Z,7.50
2023-01-10T06:57:17.285Z,7.50
2023-01-10T06:58:20.317Z,7.60
2023-01-10T06:59:23.282Z,7.50
2023-01-10T07:00:27.381Z,7.50
2023-01-10T07:01:30.491Z,7.40
2023-01-10T07:02:32.639Z,7.40
2023-01-10T07:03:35.639Z,7.40
2023-01-10T07:04:37.766Z,7.40
2023-01-10T07:05:40.670Z,7.30
2023-01-10T07:06:42.779Z,7.30
2023-01-10T07:07:45.742Z,7.40
2023-01-10T07:08:47.715Z,7.40
2023-01-10T07:09:50.662Z,7.40
2023-01-10T07:10:52.587Z,7.40
2023-01-10T07:11:55.716Z,7.30
2023-01-10T07:12:59.413Z,7.30
2023-01-10T07:14:02.793Z,7.40
2023-01-10T07:15:05.465Z,7.40
2023-01-10T07:16:10.519Z,7.40
2023-01-10T07:17:12.507Z,7.40
2023-01-10T07:18:15.432Z,7.40
2023-01-10T07:19:20.025Z,7.40
2023-01-10T07:20:22.028Z,7.40
2023-01-10T07:21:24.953Z,7.40
2023-01-10T07:22:27.108Z,7.40
2023-01-10T07:23:31.108Z,7.50
2023-01-10T07:24:33.091Z,7.50
2023-01-10T07:25:36.016Z,7.50
2023-01-10T07:26:38.133Z,7.50
2023-01-10T07:27:43.299Z,7.50
2023-01-10T07:28:50.802Z,7.40
2023-01-10T07:29:53.777Z,7.40
2023-01-10T07:30:59.030Z,7.40
2023-01-10T07:32:02.046Z,7.30
2023-01-10T07:33:06.259Z,7.30
2023-01-10T07:34:09.148Z,7.40
2023-01-10T07:35:12.060Z,7.40
2023-01-10T07:36:14.284Z,7.40
2023-01-10T07:37:17.201Z,7.40
2023-01-10T07:38:20.150Z,7.50
2023-01-10T07:39:23.068Z,7.40
2023-01-10T07:40:26.078Z,7.40
2023-01-10T07:41:28.995Z,7.40
2023-01-10T07:42:31.921Z,7.50
2023-01-10T07:43:35.448Z,7.50
2023-01-10T07:44:38.740Z,7.50
2023-01-10T07:45:41.678Z,7.60
2023-01-10T07:48:11.749Z,7.50
2023-01-10T07:49:15.171Z,7.50
2023-01-10T07:50:18.329Z,7.50
2023-01-10T07:51:20.260Z,7.50
2023-01-10T07:52:23.212Z,7.40
2023-01-10T07:53:26.534Z,7.40
2023-01-10T07:54:29.433Z,7.40
2023-01-10T07:55:34.693Z,7.40
2023-01-10T07:56:37.629Z,7.50
2023-01-10T07:57:40.575Z,7.50
2023-01-10T07:58:43.517Z,7.50
2023-01-10T07:59:46.880Z,7.40
2023-01-10T08:00:51.248Z,7.40
2023-01-10T08:01:54.528Z,7.40
2023-01-10T08:02:56.887Z,7.40
2023-01-10T08:04:00.121Z,7.40
2023-01-10T08:05:02.119Z,7.60
2023-01-10T08:06:08.045Z,7.60
2023-01-10T08:07:11.012Z,7.60
2023-01-10T08:08:13.021Z,7.60
2023-01-10T08:09:16.009Z,7.60
2023-01-10T08:10:18.075Z,7.60
2023-01-10T08:11:21.032Z,7.60
2023-01-10T08:12:24.667Z,7.60
2023-01-10T08:13:27.793Z,7.70
2023-01-10T08:14:29.782Z,7.70
2023-01-10T08:15:34.044Z,7.70
2023-01-10T08:16:40.039Z,7.70
2023-01-10T08:17:42.026Z,7.60
2023-01-10T08:18:45.030Z,7.60
2023-01-10T08:19:46.979Z,7.70
2023-01-10T08:20:50.773Z,7.70
2023-01-10T08:21:55.646Z,7.70
2023-01-10T08:22:57.792Z,7.60
2023-01-10T08:24:00.767Z,7.50
2023-01-10T08:25:02.826Z,7.50
2023-01-10T08:26:07.104Z,7.60
2023-01-10T08:27:09.175Z,7.60
2023-01-10T08:28:12.352Z,7.60
2023-01-10T08:29:14.372Z,7.60
2023-01-10T08:30:17.589Z,7.60
2023-01-10T08:31:21.877Z,7.60
2023-01-10T08:32:24.828Z,7.60
2023-01-10T08:33:27.512Z,7.60
2023-01-10T08:34:30.456Z,7.60
2023-01-10T08:35:38.128Z,7.60
2023-01-10T08:36:41.061Z,7.60
2023-01-10T08:37:43.015Z,7.60
2023-01-10T08:38:46.806Z,7.60
2023-01-10T08:39:48.815Z,7.60
2023-01-10T08:40:51.731Z,7.70
2023-01-10T08:41:54.549Z,7.70
2023-01-10T08:43:00.151Z,7.70
2023-01-10T08:44:03.363Z,7.80
2023-01-10T08:45:07.113Z,7.80
2023-01-10T08:46:10.123Z,7.80
2023-01-10T08:47:13.701Z,7.80
2023-01-10T08:48:16.683Z,7.70
2023-01-10T08:49:19.629Z,7.70
2023-01-10T08:50:22.930Z,6.20
2023-01-10T08:51:25.916Z,7.70
2023-01-10T08:52:28.846Z,7.50
2023-01-10T08:53:32.004Z,7.50
2023-01-10T08:54:34.936Z,7.50
2023-01-10T08:55:38.088Z,7.50
2023-01-10T08:56:41.120Z,7.50
2023-01-10T08:57:44.109Z,7.40
2023-01-10T08:58:47.019Z,7.50
2023-01-10T08:59:48.978Z,7.40
2023-01-10T09:00:52.150Z,7.30
2023-01-10T09:01:58.300Z,7.30
2023-01-10T09:03:02.671Z,7.30
2023-01-10T09:04:05.918Z,7.30
2023-01-10T09:05:22.001Z,7.40
2023-01-10T09:06:29.142Z,7.50
2023-01-10T09:07:31.116Z,7.40
2023-01-10T09:08:34.207Z,7.40
2023-01-10T09:09:37.913Z,7.40
2023-01-10T09:10:40.011Z,7.40
2023-01-10T09:11:43.011Z,7.40
2023-01-10T09:12:57.279Z,7.50
2023-01-10T09:14:00.264Z,7.50
2023-01-10T09:15:02.886Z,7.50
2023-01-10T09:16:06.359Z,7.50
2023-01-10T09:17:08.348Z,7.50
2023-01-10T09:18:14.355Z,7.60
2023-01-10T09:19:17.513Z,7.60
2023-01-10T09:20:19.543Z,7.50
2023-01-10T09:21:22.530Z,7.50
2023-01-10T09:22:24.515Z,7.50
2023-01-10T09:23:27.771Z,7.60
2023-01-10T09:24:31.068Z,7.60
2023-01-10T09:25:34.584Z,7.60
2023-01-10T09:26:37.501Z,7.40
2023-01-10T09:27:39.464Z,7.40
2023-01-10T09:28:42.423Z,7.40
2023-01-10T09:29:45.376Z,7.60
2023-01-10T09:32:14.890Z,7.60
2023-01-10T09:33:19.595Z,7.60
2023-01-10T09:34:22.044Z,7.60
2023-01-10T09:35:26.344Z,7.60
2023-01-10T09:36:29.307Z,7.60
2023-01-10T09:37:33.694Z,7.70
2023-01-10T09:38:36.659Z,7.60
2023-01-10T09:39:38.576Z,7.70
2023-01-10T09:40:56.180Z,7.70
2023-01-10T09:42:23.267Z,7.70
2023-01-10T09:43:34.526Z,7.70
2023-01-10T09:44:45.329Z,7.60
2023-01-10T09:45:57.816Z,7.70
2023-01-10T09:47:14.194Z,7.70
2023-01-10T09:50:12.068Z,7.60
2023-01-10T09:51:29.602Z,7.60
2023-01-10T09:52:37.115Z,7.60
2023-01-10T09:53:43.897Z,7.70
2023-01-10T09:54:48.720Z,7.70
2023-01-10T09:55:54.815Z,7.60
2023-01-10T09:56:59.525Z,7.60
2023-01-10T09:58:06.801Z,7.60
2023-01-10T09:59:16.782Z,7.60
2023-01-10T10:00:23.136Z,7.60
2023-01-10T10:01:30.358Z,7.60
2023-01-10T10:02:37.066Z,7.70
2023-01-10T10:03:46.929Z,7.60
2023-01-10T10:05:03.641Z,7.60
2023-01-10T10:06:12.122Z,7.60
2023-01-10T10:07:17.792Z,7.70
2023-01-10T10:08:21.717Z,7.70
2023-01-10T10:09:26.965Z,7.60
2023-01-10T10:10:39.143Z,7.50
2023-01-10T10:12:02.132Z,7.50
2023-01-10T10:13:26.894Z,7.40
2023-01-10T10:14:42.415Z,7.20
2023-01-10T10:15:54.880Z,7.10
2023-01-10T10:17:19.738Z,7.00
2023-01-10T10:18:34.040Z,7.00
2023-01-10T10:19:53.237Z,7.10
2023-01-10T10:21:03.324Z,7.20
2023-01-10T10:22:12.563Z,7.20
2023-01-10T10:23:34.027Z,7.20
2023-01-10T10:24:47.363Z,7.30
2023-01-10T10:26:02.612Z,7.40
2023-01-10T10:27:17.240Z,7.40
2023-01-10T10:28:53.666Z,7.30
2023-01-10T10:30:16.877Z,7.40
2023-01-10T10:31:31.161Z,7.30
2023-01-10T10:33:06.661Z,7.40
2023-01-10T10:34:17.071Z,7.40
2023-01-10T10:35:30.507Z,7.40
2023-01-10T10:36:40.428Z,7.50
2023-01-10T10:37:52.036Z,7.40
2023-01-10T10:38:59.332Z,7.50
2023-01-10T10:40:05.857Z,7.50
2023-01-10T10:41:17.975Z,7.50
2023-01-10T10:42:21.365Z,7.60
2023-01-10T10:43:28.312Z,7.60
2023-01-10T10:44:40.236Z,7.60
2023-01-10T10:45:47.247Z,7.60
2023-01-10T10:46:50.792Z,7.60
2023-01-10T10:48:00.676Z,7.60
2023-01-10T10:49:17.240Z,7.70
2023-01-10T10:50:30.851Z,7.60
2023-01-10T10:51:43.423Z,7.60
2023-01-10T10:52:46.844Z,7.70
2023-01-10T10:53:50.813Z,7.60
2023-01-10T10:54:54.817Z,7.60
2023-01-10T10:55:58.462Z,7.60
2023-01-10T10:57:00.712Z,7.50
2023-01-10T10:58:04.888Z,7.50
2023-01-10T10:59:07.005Z,7.50
2023-01-10T11:00:15.543Z,7.60
2023-01-10T11:01:19.985Z,7.60
2023-01-10T11:02:28.754Z,7.60
2023-01-10T11:03:39.571Z,7.50
2023-01-10T11:04:41.529Z,7.50
2023-01-10T11:05:48.371Z,7.50
2023-01-10T11:06:51.906Z,7.50
2023-01-10T11:07:59.492Z,7.50
2023-01-10T11:09:05.663Z,7.50
2023-01-10T11:10:18.253Z,7.60
2023-01-10T11:11:25.493Z,7.60
2023-01-10T11:12:34.716Z,7.60
2023-01-10T11:13:47.374Z,7.60
2023-01-10T11:14:51.752Z,7.70
2023-01-10T11:15:56.186Z,7.70
2023-01-10T11:17:20.093Z,7.70
2023-01-10T11:18:25.389Z,7.70
2023-01-10T11:19:29.954Z,7.70
2023-01-10T11:20:33.359Z,7.80
2023-01-10T11:21:38.576Z,7.70
2023-01-10T11:22:48.611Z,7.70
2023-01-10T11:23:54.031Z,7.60
2023-01-10T11:24:58.870Z,7.70
2023-01-10T11:26:02.007Z,7.70
2023-01-10T11:27:15.363Z,7.70
2023-01-10T11:28:21.711Z,7.70
2023-01-10T11:29:27.859Z,7.70
2023-01-10T11:30:33.212Z,7.70
2023-01-10T11:31:37.902Z,7.70
2023-01-10T11:32:50.593Z,7.70
2023-01-10T11:33:53.566Z,7.70
2023-01-10T11:34:59.597Z,7.80
2023-01-10T11:36:05.606Z,7.80
2023-01-10T11:37:21.824Z,7.70
2023-01-10T11:38:24.747Z,7.70
2023-01-10T11:39:28.659Z,7.80
2023-01-10T11:40:32.217Z,7.80
2023-01-10T11:41:34.607Z,7.80
2023-01-10T11:42:37.591Z,7.80
2023-01-10T11:43:41.753Z,7.90
2023-01-10T11:44:43.716Z,7.90
2023-01-10T11:45:46.763Z,7.90
2023-01-10T11:46:52.017Z,7.90
2023-01-10T11:47:58.473Z,7.80
2023-01-10T11:49:07.178Z,7.80
2023-01-10T11:50:11.335Z,7.80
2023-01-10T11:51:21.166Z,7.80
2023-01-10T11:52:28.234Z,7.80
2023-01-10T11:53:40.430Z,7.90
2023-01-10T11:54:43.837Z,7.90
2023-01-10T11:55:48.505Z,7.80
2023-01-10T11:56:58.204Z,7.80
2023-01-10T11:58:08.653Z,7.80
2023-01-10T11:59:15.210Z,7.80
2023-01-10T12:00:18.857Z,7.80
2023-01-10T12:01:31.311Z,7.80
2023-01-10T12:02:37.006Z,7.80
2023-01-10T12:03:40.175Z,7.80
2023-01-10T12:04:47.007Z,7.80
2023-01-10T12:05:55.155Z,7.80
2023-01-10T12:08:33.148Z,7.70
2023-01-10T12:09:42.609Z,7.70
2023-01-10T12:10:58.033Z,7.80
2023-01-10T12:12:03.750Z,7.80
2023-01-10T12:13:20.308Z,7.80
2023-01-10T12:14:23.279Z,7.80
2023-01-10T12:15:28.709Z,7.80
2023-01-10T12:16:33.151Z,7.80
2023-01-10T12:17:37.836Z,7.80
2023-01-10T12:18:39.838Z,7.90
2023-01-10T12:19:42.842Z,7.90
2023-01-10T12:20:49.071Z,7.90
2023-01-10T12:21:51.485Z,7.90
2023-01-10T12:22:58.614Z,7.90
2023-01-10T12:24:07.220Z,8.00
2023-01-10T12:25:19.519Z,8.00
2023-01-10T12:26:22.225Z,8.00
2023-01-10T12:27:27.445Z,7.90
2023-01-10T12:28:30.723Z,8.00
2023-01-10T12:29:37.770Z,7.90
2023-01-10T12:30:43.588Z,8.00
2023-01-10T12:31:46.731Z,8.00
2023-01-10T12:32:52.282Z,8.00
2023-01-10T12:34:00.462Z,8.00
2023-01-10T12:35:05.957Z,8.00
2023-01-10T12:36:17.005Z,8.00
2023-01-10T12:37:23.709Z,8.00
2023-01-10T12:38:50.791Z,7.90
2023-01-10T12:40:00.586Z,8.10
2023-01-10T12:41:03.221Z,8.00
2023-01-10T12:42:37.720Z,8.00
2023-01-10T12:44:01.754Z,8.00
2023-01-10T12:45:09.435Z,8.00
2023-01-10T12:46:31.709Z,8.00
2023-01-10T12:47:56.671Z,8.00
2023-01-10T12:49:07.967Z,8.10
2023-01-10T12:50:14.628Z,8.10
2023-01-10T12:51:21.592Z,8.10
2023-01-10T12:52:31.228Z,8.20
2023-01-10T12:53:38.701Z,8.20
2023-01-10T12:54:40.751Z,8.20
2023-01-10T12:55:47.335Z,8.10
2023-01-10T12:56:50.659Z,8.20
2023-01-10T12:57:57.595Z,8.20
2023-01-10T12:59:04.712Z,8.20
2023-01-10T13:00:20.715Z,8.20
2023-01-10T13:03:04.089Z,8.20
2023-01-10T13:04:14.192Z,8.20
2023-01-10T13:05:19.798Z,8.20
2023-01-10T13:06:32.444Z,8.20
2023-01-10T13:07:38.187Z,8.20
2023-01-10T13:08:43.657Z,8.30
2023-01-10T13:09:48.720Z,8.30
2023-01-10T13:10:56.265Z,8.30
2023-01-10T13:12:03.901Z,8.30
2023-01-10T13:13:16.624Z,8.20
2023-01-10T13:14:23.346Z,8.20
2023-01-10T13:15:31.243Z,8.20
2023-01-10T13:16:43.224Z,8.20
2023-01-10T13:17:50.416Z,8.20
2023-01-10T13:19:02.310Z,8.10
2023-01-10T13:20:28.281Z,8.20
2023-01-10T13:21:32.652Z,8.20
2023-01-10T13:22:35.954Z,8.20
2023-01-10T13:23:46.409Z,8.20
2023-01-10T13:25:00.245Z,8.20
2023-01-10T13:26:08.948Z,8.30
2023-01-10T13:27:19.714Z,8.20
2023-01-10T13:28:25.929Z,8.20
2023-01-10T13:29:32.103Z,8.20
2023-01-10T13:30:37.957Z,8.20
2023-01-10T13:31:40.958Z,8.20
2023-01-10T13:32:42.951Z,8.20
2023-01-10T13:33:54.862Z,8.20
2023-01-10T13:35:17.331Z,8.20
2023-01-10T13:36:22.598Z,8.20
2023-01-10T13:37:27.720Z,8.20
2023-01-10T13:38:39.782Z,8.20
2023-01-10T13:39:46.114Z,8.20
2023-01-10T13:41:00.816Z,8.20
2023-01-10T13:42:48.664Z,8.10
2023-01-10T13:44:10.730Z,8.20
2023-01-10T13:45:18.122Z,8.20
2023-01-10T13:46:44.957Z,8.30
2023-01-10T13:48:05.160Z,8.20
2023-01-10T13:49:45.241Z,8.30
2023-01-10T13:51:06.550Z,8.20
2023-01-10T13:52:30.515Z,8.20
2023-01-10T13:53:58.575Z,8.20
2023-01-10T13:55:04.997Z,8.20
2023-01-10T13:56:31.110Z,8.20
2023-01-10T13:57:55.046Z,8.20
2023-01-10T13:59:15.777Z,8.20
2023-01-10T14:01:06.470Z,8.20
2023-01-10T14:02:28.925Z,8.10
2023-01-10T14:03:44.298Z,8.10
2023-01-10T14:04:50.748Z,8.10
2023-01-10T14:05:52.739Z,8.10
2023-01-10T14:06:58.247Z,8.10
2023-01-10T14:08:01.820Z,8.10
2023-01-10T14:09:08.397Z,8.00
2023-01-10T14:10:22.014Z,8.10
2023-01-10T14:11:27.352Z,8.00
2023-01-10T14:12:35.691Z,8.10
2023-01-10T14:13:45.908Z,8.10
2023-01-10T14:15:01.364Z,8.10
2023-01-10T14:16:05.099Z,8.10
2023-01-10T14:17:15.734Z,8.10
2023-01-10T14:18:22.791Z,8.20
2023-01-10T14:19:28.357Z,8.10
2023-01-10T14:20:33.000Z,8.10
2023-01-10T14:21:40.179Z,8.10
2023-01-10T14:23:01.973Z,8.10
2023-01-10T14:24:05.829Z,8.10
2023-01-10T14:25:19.986Z,8.10
2023-01-10T14:26:26.787Z,8.10
2023-01-10T14:27:37.189Z,8.10
2023-01-10T14:28:42.732Z,8.10
2023-01-10T14:29:49.984Z,8.10
2023-01-10T14:31:03.398Z,8.10
2023-01-10T14:32:19.418Z,8.20
2023-01-10T14:33:23.411Z,8.10
2023-01-10T14:34:27.974Z,8.10
2023-01-10T14:35:39.441Z,8.10
2023-01-10T14:36:49.423Z,8.10
2023-01-10T14:37:56.259Z,8.10
2023-01-10T14:39:03.328Z,8.00
2023-01-10T14:40:11.807Z,8.00
2023-01-10T14:41:19.625Z,8.00
2023-01-10T14:42:22.040Z,8.00
2023-01-10T14:43:31.398Z,8.00
2023-01-10T14:44:45.761Z,8.00
2023-01-10T14:45:54.779Z,8.00
2023-01-10T14:46:59.500Z,8.00
2023-01-10T14:48:22.206Z,8.00
2023-01-10T14:49:27.584Z,8.00
2023-01-10T14:50:32.482Z,8.10
2023-01-10T14:51:35.535Z,8.10
2023-01-10T14:52:41.975Z,8.00
2023-01-10T14:53:45.382Z,8.00